Terminal Aerodrome Forecast
Issued by NWS

Home | Current Version | Previous Version | Text Only | Print | Product List | Glossary On
Versions: 1 2 3 4 5 6 7 8 9 10 11 12 13
581
FTUS45 KTFX 241734
TAFBZN
TAF
KBZN 241734Z 2418/2524 VRB05KT P6SM FEW009 BKN060
     FM250100 VRB05KT P6SM SCT060
     FM250600 VRB05KT 6SM BR FEW060=

USA.gov is the U.S. government's official web portal to all federal, state and local government web resources and services.